Time;durP1;ratioP1;P1;durP2;ratioP2;P2;SDS_P1;SDS_P2;PMS_P1;PMS_P2;Temp;Humidity;BMP_temperature;BMP_pressure;BME280_temperature;BME280_humidity;BME280_pressure;Samples;Min_cycle;Max_cycle;Signal;HPM_P1;HPM_P2
2021/11/10 00:00:19;;;;;;;36.33;16.73;;;8.70;78.10;;;;;;5096896;28;20530;-80
2021/11/10 00:02:45;;;;;;;36.30;16.45;;;8.60;78.50;;;;;;5096506;28;20207;-80
2021/11/10 00:05:11;;;;;;;37.00;15.50;;;8.60;78.80;;;;;;5096504;28;20249;-80
2021/11/10 00:07:37;;;;;;;29.65;16.52;;;8.60;79.00;;;;;;5095178;28;20184;-80
2021/11/10 00:10:04;;;;;;;42.60;16.60;;;8.50;79.10;;;;;;5097005;28;20168;-80
2021/11/10 00:12:30;;;;;;;37.75;14.85;;;8.50;79.40;;;;;;5102763;28;20481;-80
2021/11/10 00:14:56;;;;;;;33.05;16.13;;;8.70;79.50;;;;;;5116976;28;20323;-80
2021/11/10 00:17:22;;;;;;;29.00;15.50;;;9.00;78.80;;;;;;5118887;28;20192;-80
2021/11/10 00:19:48;;;;;;;32.33;14.67;;;9.00;78.70;;;;;;5116935;28;20175;-80
2021/11/10 00:22:14;;;;;;;28.93;13.73;;;9.10;77.80;;;;;;5090401;28;20185;-80
2021/11/10 00:24:40;;;;;;;37.20;15.10;;;9.10;77.70;;;;;;5076283;28;20188;-80
2021/11/10 00:27:06;;;;;;;34.93;14.60;;;9.10;77.50;;;;;;5076338;28;20245;-80
2021/11/10 00:29:31;;;;;;;37.97;14.20;;;9.10;77.40;;;;;;5079997;28;20906;-80
2021/11/10 00:31:57;;;;;;;29.47;14.90;;;9.10;77.20;;;;;;5081876;28;20215;-80
2021/11/10 00:34:23;;;;;;;35.60;14.57;;;9.10;77.00;;;;;;5101516;28;20211;-80
2021/11/10 00:36:48;;;;;;;41.07;16.17;;;8.90;77.00;;;;;;5101976;28;20184;-80
2021/11/10 00:39:14;;;;;;;32.03;15.60;;;8.70;77.10;;;;;;5092685;28;20173;-80
2021/11/10 00:41:40;;;;;;;43.70;17.27;;;8.90;77.40;;;;;;5083572;28;20215;-80
2021/11/10 00:44:06;;;;;;;36.10;14.77;;;8.80;77.20;;;;;;5081096;28;20466;-80
2021/11/10 00:46:32;;;;;;;34.70;15.13;;;8.80;77.10;;;;;;5081301;28;20427;-80
2021/11/10 00:48:59;;;;;;;37.08;15.77;;;8.20;77.30;;;;;;5083753;28;20183;-80
2021/11/10 00:51:24;;;;;;;30.13;15.45;;;8.20;78.20;;;;;;5089484;28;20176;-80
2021/11/10 00:53:50;;;;;;;31.80;16.50;;;8.40;78.20;;;;;;5080285;28;20283;-80
2021/11/10 00:56:16;;;;;;;34.47;15.00;;;8.50;78.10;;;;;;5083759;28;20419;-80
2021/11/10 00:58:42;;;;;;;27.42;14.00;;;8.60;77.80;;;;;;5085707;28;20181;-80
2021/11/10 01:01:08;;;;;;;36.25;15.15;;;8.50;77.70;;;;;;5077541;28;20185;-80
2021/11/10 01:03:34;;;;;;;32.10;14.63;;;8.40;77.80;;;;;;5085932;28;20273;-79
2021/11/10 01:06:01;;;;;;;40.78;15.68;;;8.20;78.10;;;;;;5095045;28;20422;-80
2021/11/10 01:08:27;;;;;;;32.63;15.13;;;8.20;78.50;;;;;;5095807;28;20177;-80
2021/11/10 01:10:54;;;;;;;32.72;14.30;;;8.30;78.80;;;;;;5091233;28;20180;-80
2021/11/10 01:13:21;;;;;;;46.45;15.98;;;8.50;78.50;;;;;;5105925;28;20199;-80
2021/11/10 01:15:47;;;;;;;34.63;16.42;;;8.50;78.20;;;;;;5116043;28;20214;-80
2021/11/10 01:18:13;;;;;;;35.05;16.60;;;8.30;78.00;;;;;;5113980;28;20202;-80
2021/11/10 01:20:40;;;;;;;35.33;14.80;;;8.10;78.30;;;;;;5113049;28;20176;-80
2021/11/10 01:23:08;;;;;;;31.75;15.25;;;8.30;78.20;;;;;;5107873;28;20200;-80
2021/11/10 01:25:34;;;;;;;30.75;15.20;;;8.30;77.90;;;;;;5099321;28;20271;-80
2021/11/10 01:28:00;;;;;;;33.20;15.27;;;8.20;77.80;;;;;;5098702;28;20172;-79
2021/11/10 01:30:27;;;;;;;32.22;15.93;;;8.20;77.90;;;;;;5096285;28;20183;-80
2021/11/10 01:32:52;;;;;;;35.97;16.25;;;8.30;78.00;;;;;;5092395;28;20183;-80
2021/11/10 01:35:19;;;;;;;32.03;15.97;;;8.20;77.30;;;;;;5084825;28;20208;-79
2021/11/10 01:37:44;;;;;;;27.80;14.73;;;8.20;77.00;;;;;;5084286;28;20509;-79
2021/11/10 01:40:12;;;;;;;34.00;16.43;;;8.10;76.70;;;;;;5075194;28;20263;-79
2021/11/10 01:42:40;;;;;;;40.22;16.00;;;8.10;76.70;;;;;;5078667;28;20454;-80
2021/11/10 01:45:07;;;;;;;34.03;15.75;;;8.00;76.80;;;;;;5077757;28;20204;-80
2021/11/10 01:47:33;;;;;;;28.85;15.88;;;8.10;77.20;;;;;;5097796;28;20172;-80
2021/11/10 01:49:59;;;;;;;32.47;16.25;;;7.90;77.10;;;;;;5098535;28;20255;-79
2021/11/10 01:52:25;;;;;;;43.20;17.30;;;7.60;77.50;;;;;;5096108;28;20615;-79
2021/11/10 01:54:51;;;;;;;22.83;14.67;;;7.80;77.80;;;;;;5100313;28;20192;-80
2021/11/10 01:57:17;;;;;;;30.23;15.80;;;7.90;77.90;;;;;;5084161;28;20180;-80
2021/11/10 01:59:46;;;;;;;33.70;16.33;;;7.70;77.80;;;;;;5095327;28;20248;-80
2021/11/10 02:02:22;;;;;;;30.23;15.65;;;7.80;78.00;;;;;;5083159;28;20419;-80
2021/11/10 02:04:48;;;;;;;25.85;16.35;;;8.00;77.70;;;;;;5085207;28;20245;-80
2021/11/10 02:07:15;;;;;;;35.67;17.77;;;7.70;77.30;;;;;;5086312;28;20636;-80
2021/11/10 02:09:43;;;;;;;35.13;16.25;;;7.70;77.80;;;;;;5095759;28;20236;-81
2021/11/10 02:12:10;;;;;;;31.88;17.58;;;7.50;78.00;;;;;;5098334;28;20176;-80
2021/11/10 02:14:37;;;;;;;33.58;16.75;;;7.60;78.10;;;;;;5095113;28;20222;-81
2021/11/10 02:17:03;;;;;;;34.75;15.60;;;7.70;77.90;;;;;;5085587;28;20184;-81
2021/11/10 02:19:29;;;;;;;31.00;16.83;;;7.70;77.70;;;;;;5078763;28;20173;-81
2021/11/10 02:21:57;;;;;;;32.40;17.03;;;7.70;77.60;;;;;;5089543;28;20198;-81
2021/11/10 02:24:25;;;;;;;30.95;15.63;;;7.60;77.50;;;;;;5084047;28;20227;-81
2021/11/10 02:26:51;;;;;;;25.48;15.32;;;7.40;77.80;;;;;;5082879;28;20177;-81
2021/11/10 02:29:23;;;;;;;34.75;17.73;;;7.60;77.90;;;;;;5080218;28;20190;-81
2021/11/10 02:31:50;;;;;;;27.05;15.77;;;7.50;77.80;;;;;;5076779;28;20157;-81
2021/11/10 02:34:16;;;;;;;31.55;15.40;;;7.40;78.10;;;;;;5077159;28;20192;-81
2021/11/10 02:36:42;;;;;;;30.38;16.67;;;7.30;78.30;;;;;;5072923;28;20195;-81
2021/11/10 02:39:11;;;;;;;40.58;17.25;;;7.20;78.40;;;;;;5075549;28;20693;-80
2021/11/10 02:41:38;;;;;;;30.88;15.82;;;7.40;78.60;;;;;;5059735;28;20181;-80
2021/11/10 02:44:05;;;;;;;43.45;17.13;;;7.40;78.40;;;;;;5075055;28;20208;-81
2021/11/10 02:46:33;;;;;;;32.72;15.60;;;7.60;78.40;;;;;;5075231;28;20188;-81
2021/11/10 02:48:59;;;;;;;39.25;17.05;;;7.60;77.90;;;;;;5075733;28;20188;-80
2021/11/10 02:51:25;;;;;;;28.70;15.50;;;7.50;77.70;;;;;;5075283;28;20176;-81
2021/11/10 02:53:51;;;;;;;30.13;17.20;;;7.30;77.80;;;;;;5075552;28;20198;-81
2021/11/10 02:56:17;;;;;;;30.52;14.68;;;7.20;78.00;;;;;;5076506;28;20184;-81
2021/11/10 02:58:43;;;;;;;39.55;17.48;;;6.90;79.20;;;;;;5075836;28;20648;-81
2021/11/10 03:01:09;;;;;;;32.83;16.73;;;6.60;79.10;;;;;;5075114;28;20271;-80
2021/11/10 03:03:35;;;;;;;34.27;16.67;;;6.80;79.60;;;;;;5075575;28;20236;-81
2021/11/10 03:06:01;;;;;;;28.73;15.75;;;6.90;79.70;;;;;;5077760;28;20983;-81
2021/11/10 03:08:27;;;;;;;38.33;16.48;;;7.00;79.60;;;;;;5094394;28;20231;-80
2021/11/10 03:10:53;;;;;;;34.20;15.97;;;6.90;79.60;;;;;;5074931;28;20635;-80
2021/11/10 03:13:19;;;;;;;32.10;15.93;;;7.10;79.70;;;;;;5099595;28;20255;-80
2021/11/10 03:15:46;;;;;;;26.73;16.17;;;7.30;79.30;;;;;;5115465;28;20637;-80
2021/11/10 03:18:13;;;;;;;27.90;15.77;;;7.40;78.80;;;;;;5097605;28;20421;-81
2021/11/10 03:20:39;;;;;;;27.10;15.45;;;7.50;78.50;;;;;;5115755;28;20175;-80
2021/11/10 03:23:05;;;;;;;34.75;14.93;;;7.40;78.20;;;;;;5121694;28;20207;-82
2021/11/10 03:25:31;;;;;;;38.83;16.35;;;7.40;78.20;;;;;;5089134;28;20265;-81
2021/11/10 03:27:57;;;;;;;29.10;16.20;;;7.50;77.80;;;;;;5077497;28;20263;-81
2021/11/10 03:30:23;;;;;;;28.73;14.90;;;7.50;77.70;;;;;;5077675;28;20168;-81
2021/11/10 03:32:51;;;;;;;22.70;14.32;;;7.50;77.40;;;;;;5078573;28;20173;-81
2021/11/10 03:35:18;;;;;;;30.30;14.35;;;7.50;77.20;;;;;;5077818;28;20245;-81
2021/11/10 03:37:44;;;;;;;25.38;16.15;;;7.40;77.10;;;;;;5077569;28;20222;-81
2021/11/10 03:40:11;;;;;;;26.05;14.75;;;7.40;77.00;;;;;;5077311;28;20200;-81
2021/11/10 03:42:37;;;;;;;28.75;14.38;;;7.40;77.00;;;;;;5081327;28;20219;-81
2021/11/10 03:45:03;;;;;;;28.77;16.30;;;7.30;77.20;;;;;;5080343;28;20727;-81
2021/11/10 03:47:29;;;;;;;28.98;14.93;;;7.20;77.30;;;;;;5080169;28;20205;-81
2021/11/10 03:49:55;;;;;;;32.47;15.53;;;7.10;77.50;;;;;;5102708;28;20172;-80
2021/11/10 03:52:21;;;;;;;29.88;14.50;;;7.10;77.60;;;;;;5098824;28;20504;-80
2021/11/10 03:54:47;;;;;;;35.03;15.20;;;7.10;77.80;;;;;;5083083;28;20548;-80
2021/11/10 03:57:14;;;;;;;27.35;14.65;;;7.00;77.70;;;;;;5081175;28;20407;-81
2021/11/10 03:59:41;;;;;;;29.27;13.55;;;6.70;77.80;;;;;;5081986;28;20196;-80
2021/11/10 04:02:09;;;;;;;37.53;15.40;;;6.60;78.10;;;;;;5076150;28;20171;-80
2021/11/10 04:04:35;;;;;;;39.13;15.18;;;6.40;78.50;;;;;;5075800;28;20647;-81
2021/11/10 04:07:00;;;;;;;23.95;14.38;;;6.50;78.80;;;;;;5078310;28;20180;-81
2021/11/10 04:09:27;;;;;;;23.80;13.07;;;6.80;78.70;;;;;;5081148;28;20667;-80
2021/11/10 04:11:53;;;;;;;26.10;13.55;;;7.00;78.30;;;;;;5079331;28;20181;-80
2021/11/10 04:14:19;;;;;;;26.73;15.57;;;7.00;78.10;;;;;;5118589;28;20690;-81
2021/11/10 04:16:45;;;;;;;37.72;15.27;;;6.90;78.10;;;;;;5118122;28;20179;-81
2021/11/10 04:19:11;;;;;;;30.07;13.97;;;7.10;78.00;;;;;;5118580;28;20185;-81
2021/11/10 04:21:37;;;;;;;27.70;15.00;;;7.20;77.60;;;;;;5118163;28;20408;-81
2021/11/10 04:24:04;;;;;;;29.13;15.82;;;7.20;77.60;;;;;;5119609;28;20208;-80
2021/11/10 04:26:38;;;;;;;29.30;13.88;;;7.10;77.60;;;;;;5110876;28;20271;-80
2021/11/10 04:29:05;;;;;;;22.85;14.55;;;7.10;77.60;;;;;;5077532;28;20175;-81
2021/11/10 04:31:31;;;;;;;24.40;14.15;;;7.10;77.20;;;;;;5077299;28;20184;-80
2021/11/10 04:33:58;;;;;;;43.63;14.40;;;6.90;77.20;;;;;;5077265;28;20210;-81
2021/11/10 04:36:25;;;;;;;26.73;14.15;;;6.80;77.40;;;;;;5078795;28;20418;-81
2021/11/10 04:38:51;;;;;;;24.05;14.57;;;7.00;77.40;;;;;;5077898;28;20191;-81
2021/11/10 04:41:18;;;;;;;30.45;13.90;;;6.90;77.00;;;;;;5078016;28;20634;-81
2021/11/10 04:43:44;;;;;;;23.58;13.55;;;6.80;77.00;;;;;;5081069;28;20296;-81
2021/11/10 04:46:56;;;;;;;28.02;15.27;;;6.80;77.30;;;;;;5093722;28;20169;-81
2021/11/10 04:48:55;;;;;;;24.17;13.65;;;6.80;77.40;;;;;;5068365;28;20234;-80
2021/11/10 04:51:26;;;;;;;26.33;14.20;;;6.70;77.50;;;;;;5080788;28;20184;-81
2021/11/10 04:53:52;;;;;;;26.38;14.43;;;6.70;77.60;;;;;;5076454;28;20273;-81
2021/11/10 04:56:20;;;;;;;30.00;13.70;;;6.60;77.60;;;;;;5078712;28;20183;-81
2021/11/10 04:58:46;;;;;;;29.77;14.68;;;6.60;77.60;;;;;;5079007;28;20179;-81
2021/11/10 05:01:27;;;;;;;32.83;14.38;;;6.70;77.60;;;;;;5078433;28;20177;-81
2021/11/10 05:03:56;;;;;;;21.45;13.13;;;6.60;77.60;;;;;;5076317;28;20250;-81
2021/11/10 05:06:23;;;;;;;18.15;12.05;;;6.80;77.60;;;;;;5078258;28;20172;-80
2021/11/10 05:08:49;;;;;;;32.90;14.45;;;6.90;77.20;;;;;;5077454;28;20184;-81
2021/11/10 05:11:15;;;;;;;24.07;12.23;;;7.00;77.50;;;;;;5076834;28;20180;-82
2021/11/10 05:13:41;;;;;;;28.70;15.25;;;7.00;76.80;;;;;;5084989;28;20541;-81
2021/11/10 05:16:07;;;;;;;26.05;14.48;;;6.90;76.80;;;;;;5077680;28;20249;-81
2021/11/10 05:18:33;;;;;;;26.63;13.77;;;6.90;76.90;;;;;;5076635;28;20180;-81
2021/11/10 05:20:59;;;;;;;28.90;12.80;;;6.80;77.00;;;;;;5077440;28;20512;-81
2021/11/10 05:23:24;;;;;;;19.67;13.10;;;6.60;77.10;;;;;;5089459;28;20286;-81
2021/11/10 05:25:51;;;;;;;27.77;13.30;;;6.60;77.40;;;;;;5097765;28;20418;-81
2021/11/10 05:28:17;;;;;;;24.85;13.82;;;6.60;77.40;;;;;;5097992;28;20410;-81
2021/11/10 05:30:42;;;;;;;22.03;13.73;;;6.40;77.50;;;;;;5096437;28;20218;-81
2021/11/10 05:33:09;;;;;;;19.77;13.20;;;6.40;77.70;;;;;;5095866;28;20187;-82
2021/11/10 05:35:35;;;;;;;28.25;14.85;;;6.50;78.00;;;;;;5096952;28;20421;-81
2021/11/10 05:38:01;;;;;;;21.88;13.20;;;6.80;77.70;;;;;;5096926;28;20194;-81
2021/11/10 05:40:27;;;;;;;24.03;14.07;;;6.80;77.10;;;;;;5097831;28;20182;-81
2021/11/10 05:42:53;;;;;;;21.65;12.88;;;6.90;76.90;;;;;;5096732;28;20470;-81
2021/11/10 05:45:18;;;;;;;23.20;13.77;;;6.90;76.60;;;;;;5096245;28;20203;-80
2021/11/10 05:47:45;;;;;;;23.97;14.00;;;6.80;76.50;;;;;;5095024;28;20531;-81
2021/11/10 05:50:11;;;;;;;33.33;14.45;;;6.70;76.80;;;;;;5097142;28;20860;-80
2021/11/10 05:52:38;;;;;;;35.47;13.53;;;6.70;77.20;;;;;;5097249;28;20230;-80
2021/11/10 05:55:05;;;;;;;28.17;14.45;;;6.80;77.40;;;;;;5098406;28;20864;-80
2021/11/10 05:57:31;;;;;;;34.15;14.60;;;6.80;77.40;;;;;;5097667;28;20668;-80
2021/11/10 05:59:57;;;;;;;28.75;13.65;;;6.70;77.50;;;;;;5097561;28;20180;-80
2021/11/10 06:02:23;;;;;;;33.10;13.27;;;6.70;77.70;;;;;;5099281;28;20183;-80
2021/11/10 06:04:49;;;;;;;25.87;14.60;;;6.70;77.70;;;;;;5091907;28;20518;-79
2021/11/10 06:07:15;;;;;;;27.65;13.82;;;6.60;77.70;;;;;;5077821;28;20557;-79
2021/11/10 06:09:41;;;;;;;30.02;14.90;;;6.80;77.50;;;;;;5076763;28;20183;-79
2021/11/10 06:12:08;;;;;;;28.02;13.52;;;6.70;77.40;;;;;;5082265;28;20168;-79
2021/11/10 06:14:33;;;;;;;24.73;11.25;;;6.80;77.10;;;;;;5116101;28;20231;-79
2021/11/10 06:16:59;;;;;;;22.13;12.83;;;6.80;76.60;;;;;;5118042;28;20280;-80
2021/11/10 06:19:26;;;;;;;18.17;11.83;;;6.80;76.30;;;;;;5117812;28;20175;-80
2021/11/10 06:21:53;;;;;;;32.35;13.98;;;6.80;76.00;;;;;;5101043;28;20184;-79
2021/11/10 06:24:20;;;;;;;25.35;13.48;;;6.80;75.80;;;;;;5095868;28;20207;-79
2021/11/10 06:26:47;;;;;;;19.80;13.60;;;6.60;75.70;;;;;;5098601;28;20642;-80
2021/11/10 06:29:12;;;;;;;27.15;12.93;;;6.40;76.10;;;;;;5098360;28;20176;-80
2021/11/10 06:31:38;;;;;;;20.50;13.83;;;6.20;76.50;;;;;;5096154;28;20187;-80
2021/11/10 06:34:04;;;;;;;28.07;14.73;;;6.00;77.00;;;;;;5096782;28;20204;-80
2021/11/10 06:36:30;;;;;;;31.83;14.07;;;5.80;77.70;;;;;;5096998;28;20282;-80
2021/11/10 06:38:56;;;;;;;31.50;13.32;;;5.70;78.40;;;;;;5090316;28;20504;-80
2021/11/10 06:41:22;;;;;;;34.50;13.80;;;5.60;79.00;;;;;;5075731;28;20188;-80
2021/11/10 06:43:50;;;;;;;26.13;12.90;;;5.60;79.70;;;;;;5077446;28;20520;-80
2021/11/10 06:46:16;;;;;;;26.25;14.02;;;5.50;80.20;;;;;;5096811;28;20258;-80
2021/11/10 06:48:42;;;;;;;29.80;14.13;;;5.60;80.70;;;;;;5096836;28;20180;-81
2021/11/10 06:51:08;;;;;;;33.92;15.13;;;5.70;80.70;;;;;;5096057;28;20212;-80
2021/11/10 06:53:34;;;;;;;27.57;14.73;;;5.90;80.70;;;;;;5094021;28;20203;-80
2021/11/10 06:56:01;;;;;;;27.70;13.40;;;6.10;80.50;;;;;;5091052;28;20773;-80
2021/11/10 06:58:26;;;;;;;31.20;14.40;;;6.30;79.80;;;;;;5085570;28;20195;-79
2021/11/10 07:00:52;;;;;;;32.03;16.23;;;6.30;79.60;;;;;;5103449;28;20191;-80
2021/11/10 07:03:18;;;;;;;29.77;13.20;;;6.40;79.40;;;;;;5084211;28;20699;-79
2021/11/10 07:05:43;;;;;;;27.17;14.23;;;6.50;79.40;;;;;;5082289;28;20180;-80
2021/11/10 07:08:09;;;;;;;33.53;15.90;;;6.60;79.20;;;;;;5082196;28;20264;-79
2021/11/10 07:10:35;;;;;;;32.93;15.20;;;6.50;78.80;;;;;;5082342;28;20234;-79
2021/11/10 07:13:00;;;;;;;38.23;14.07;;;6.50;78.80;;;;;;5101891;28;20195;-80
2021/11/10 07:15:26;;;;;;;21.67;13.53;;;6.60;78.30;;;;;;5121463;28;20554;-79
2021/11/10 07:17:53;;;;;;;29.70;13.10;;;6.40;78.00;;;;;;5099132;28;20185;-80
2021/11/10 07:20:20;;;;;;;23.90;12.98;;;6.40;78.10;;;;;;5083368;28;20586;-79
2021/11/10 07:22:46;;;;;;;33.33;14.82;;;6.70;77.80;;;;;;5100052;28;20256;-79
2021/11/10 07:25:12;;;;;;;27.83;12.95;;;6.70;77.20;;;;;;5101812;28;20192;-79
2021/11/10 07:27:39;;;;;;;22.92;14.13;;;6.70;76.50;;;;;;5109923;28;20223;-79
2021/11/10 07:30:09;;;;;;;26.15;13.27;;;6.80;76.20;;;;;;5102575;28;20300;-79
2021/11/10 07:32:36;;;;;;;31.88;13.10;;;6.80;76.10;;;;;;5085821;28;20172;-79
2021/11/10 07:35:04;;;;;;;37.33;14.43;;;6.70;76.30;;;;;;5099776;28;20239;-79
2021/11/10 07:37:29;;;;;;;27.58;13.00;;;6.80;75.90;;;;;;5103097;28;20183;-79
2021/11/10 07:39:55;;;;;;;32.37;13.43;;;6.80;75.80;;;;;;5102872;28;20188;-79
2021/11/10 07:42:21;;;;;;;24.67;11.00;;;7.00;75.50;;;;;;5103706;28;20175;-79
2021/11/10 07:44:47;;;;;;;28.00;13.73;;;6.80;75.50;;;;;;5101450;28;20264;-79
2021/11/10 07:47:21;;;;;;;32.13;12.93;;;6.80;75.80;;;;;;5101500;28;20183;-79
2021/11/10 07:49:47;;;;;;;32.83;14.55;;;7.00;75.70;;;;;;5103331;28;20186;-79
2021/11/10 07:52:13;;;;;;;28.77;13.50;;;7.00;75.30;;;;;;5099777;28;20678;-79
2021/11/10 07:54:39;;;;;;;24.30;13.48;;;6.80;75.40;;;;;;5082056;28;20937;-79
2021/11/10 07:57:05;;;;;;;28.88;13.63;;;6.70;75.70;;;;;;5082358;28;20184;-79
2021/11/10 07:59:31;;;;;;;23.02;12.30;;;6.80;76.00;;;;;;5082047;28;20242;-79
2021/11/10 08:01:57;;;;;;;23.50;12.23;;;6.80;75.80;;;;;;5099678;28;20190;-79
2021/11/10 08:04:23;;;;;;;20.37;12.70;;;6.90;75.70;;;;;;5101179;28;20468;-80
2021/11/10 08:06:49;;;;;;;24.02;12.00;;;7.00;75.50;;;;;;5087268;28;20510;-79
2021/11/10 08:09:15;;;;;;;29.23;13.80;;;7.00;75.20;;;;;;5083965;28;20172;-79
2021/11/10 08:11:41;;;;;;;22.17;12.65;;;7.10;75.10;;;;;;5082412;28;20169;-79
2021/11/10 08:14:07;;;;;;;27.20;12.00;;;6.90;75.10;;;;;;5119162;28;20237;-79
2021/11/10 08:16:34;;;;;;;23.15;12.90;;;7.00;75.40;;;;;;5123311;28;20417;-79
2021/11/10 08:18:59;;;;;;;30.75;13.15;;;7.10;75.30;;;;;;5122614;28;20190;-79
2021/11/10 08:21:27;;;;;;;41.50;13.40;;;7.20;74.90;;;;;;5091403;28;20211;-79
2021/11/10 08:23:53;;;;;;;22.83;12.73;;;7.30;74.90;;;;;;5080230;28;20229;-80
2021/11/10 08:26:18;;;;;;;24.73;14.53;;;7.30;75.00;;;;;;5081209;28;20180;-79
2021/11/10 08:28:45;;;;;;;20.70;12.20;;;7.40;75.10;;;;;;5080796;28;20180;-79
2021/11/10 08:31:11;;;;;;;26.98;14.55;;;7.00;75.20;;;;;;5081859;28;20640;-79
2021/11/10 08:33:36;;;;;;;30.93;14.03;;;6.80;76.30;;;;;;5082958;28;20211;-78
2021/11/10 08:36:02;;;;;;;26.43;13.07;;;6.90;77.00;;;;;;5085204;28;20857;-79
2021/11/10 08:38:29;;;;;;;26.13;12.63;;;7.00;77.10;;;;;;5089729;28;20172;-80
2021/11/10 08:40:57;;;;;;;22.90;12.00;;;7.20;77.00;;;;;;5091559;28;20479;-79
2021/11/10 08:43:23;;;;;;;29.80;11.63;;;7.10;77.00;;;;;;5089862;28;20675;-79
2021/11/10 08:45:53;;;;;;;27.50;12.60;;;7.20;77.10;;;;;;5080251;28;20177;-79
2021/11/10 08:48:20;;;;;;;26.85;12.10;;;7.20;77.00;;;;;;5079717;28;20230;-80
2021/11/10 08:50:47;;;;;;;35.40;14.20;;;7.40;77.10;;;;;;5079920;28;20176;-81
2021/11/10 08:53:19;;;;;;;37.50;12.93;;;7.50;77.00;;;;;;5079897;28;20185;-82
2021/11/10 08:55:49;;;;;;;26.40;12.50;;;7.60;76.80;;;;;;5079132;28;20176;-84
2021/11/10 08:58:16;;;;;;;24.65;12.82;;;7.80;76.60;;;;;;5078902;28;20208;-81
2021/11/10 09:00:42;;;;;;;23.83;12.25;;;7.90;76.30;;;;;;5080086;28;20620;-80
2021/11/10 09:03:08;;;;;;;24.83;13.57;;;7.90;76.00;;;;;;5078035;28;20204;-81
2021/11/10 09:05:34;;;;;;;34.67;13.63;;;7.90;75.60;;;;;;5083089;28;20177;-80
2021/11/10 09:08:00;;;;;;;22.70;10.60;;;7.90;75.40;;;;;;5078774;28;20225;-80
2021/11/10 09:10:26;;;;;;;22.15;11.75;;;8.10;75.30;;;;;;5078340;28;20192;-80
2021/11/10 09:12:53;;;;;;;24.23;12.35;;;8.30;75.00;;;;;;5095719;28;20265;-81
2021/11/10 09:15:20;;;;;;;26.10;12.95;;;8.30;74.70;;;;;;5118950;28;20199;-81
2021/11/10 09:17:47;;;;;;;21.17;13.40;;;8.50;74.50;;;;;;5119538;28;20183;-80
2021/11/10 09:20:23;;;;;;;29.02;13.80;;;8.40;73.90;;;;;;5119892;28;20175;-81
2021/11/10 09:22:49;;;;;;;22.95;13.05;;;8.60;74.00;;;;;;5088427;28;20287;-81
2021/11/10 09:25:18;;;;;;;26.55;12.75;;;8.60;73.80;;;;;;5077369;28;20196;-80
2021/11/10 09:27:45;;;;;;;26.55;11.95;;;8.80;73.90;;;;;;5079623;28;20176;-81
2021/11/10 09:30:15;;;;;;;23.35;11.60;;;9.00;73.70;;;;;;5078615;28;20196;-81
2021/11/10 09:32:42;;;;;;;30.27;11.73;;;8.80;73.40;;;;;;5078229;28;20172;-80
2021/11/10 09:35:11;;;;;;;20.38;12.57;;;8.80;73.50;;;;;;5077450;28;20281;-81
2021/11/10 09:37:38;;;;;;;26.15;11.35;;;8.80;73.50;;;;;;5077916;28;20666;-81
2021/11/10 09:40:07;;;;;;;19.45;10.70;;;8.70;73.40;;;;;;5078731;28;20191;-81
2021/11/10 09:42:34;;;;;;;28.33;12.35;;;8.90;73.40;;;;;;5078973;28;20636;-81
2021/11/10 09:45:00;;;;;;;26.50;12.18;;;9.00;73.00;;;;;;5076631;28;20216;-81
2021/11/10 09:47:26;;;;;;;27.30;12.63;;;8.90;72.80;;;;;;5076645;28;20198;-80
2021/11/10 09:49:51;;;;;;;30.67;14.80;;;9.00;73.10;;;;;;5076940;28;20278;-80
2021/11/10 09:52:18;;;;;;;34.63;14.60;;;9.00;72.80;;;;;;5076885;28;20406;-80
2021/11/10 09:54:45;;;;;;;25.85;12.35;;;9.10;72.90;;;;;;5077493;28;20790;-80
2021/11/10 09:57:11;;;;;;;27.75;13.10;;;9.30;72.50;;;;;;5077084;28;20196;-80
2021/11/10 09:59:38;;;;;;;24.27;12.88;;;9.20;72.20;;;;;;5078707;28;20177;-80
2021/11/10 10:02:11;;;;;;;36.97;13.18;;;9.20;72.30;;;;;;5077592;28;20259;-81
2021/11/10 10:04:44;;;;;;;21.90;11.50;;;9.30;72.40;;;;;;5076068;28;20299;-80
2021/11/10 10:07:11;;;;;;;21.15;13.18;;;9.40;72.20;;;;;;5075835;28;20689;-81
2021/11/10 10:09:37;;;;;;;22.30;13.02;;;9.30;71.80;;;;;;5076283;28;20172;-80
2021/11/10 10:12:05;;;;;;;31.25;13.80;;;9.40;72.10;;;;;;5078392;28;20268;-80
2021/11/10 10:14:32;;;;;;;29.73;13.38;;;9.60;72.10;;;;;;5084405;28;20208;-80
2021/11/10 10:17:01;;;;;;;26.50;15.15;;;9.60;71.50;;;;;;5076731;28;20701;-81
2021/11/10 10:19:41;;;;;;;24.15;13.32;;;9.70;71.50;;;;;;5074928;28;20176;-81
2021/11/10 10:22:07;;;;;;;29.00;13.27;;;9.80;70.90;;;;;;5076506;28;20650;-80
2021/11/10 10:24:51;;;;;;;26.98;12.88;;;9.70;70.70;;;;;;5074277;28;20300;-81
2021/11/10 10:27:32;;;;;;;36.47;13.07;;;9.70;70.80;;;;;;5074406;28;20207;-81
2021/11/10 10:30:35;;;;;;;47.85;14.45;;;10.00;70.80;;;;;;5074341;28;20195;-81
2021/11/10 10:33:16;;;;;;;58.00;13.68;;;10.00;70.60;;;;;;5073286;28;20237;-81
2021/11/10 10:35:48;;;;;;;45.75;12.07;;;10.20;70.40;;;;;;5075907;28;20196;-81
2021/11/10 10:38:18;;;;;;;26.50;13.43;;;10.20;69.80;;;;;;5098724;28;20198;-80
2021/11/10 10:40:46;;;;;;;22.33;12.65;;;10.30;69.40;;;;;;5101460;28;20236;-80
2021/11/10 10:43:12;;;;;;;28.83;13.35;;;10.50;68.80;;;;;;5117653;28;20214;-81
2021/11/10 10:45:45;;;;;;;25.98;12.93;;;10.60;68.70;;;;;;5118483;28;20182;-80
2021/11/10 10:48:13;;;;;;;22.92;12.98;;;10.70;68.50;;;;;;5099319;28;20207;-80
2021/11/10 10:50:42;;;;;;;18.45;12.35;;;10.70;68.40;;;;;;5077952;28;20271;-81
2021/11/10 10:53:10;;;;;;;25.92;13.07;;;10.80;68.20;;;;;;5076506;28;20187;-81
2021/11/10 10:55:45;;;;;;;24.90;12.63;;;10.90;67.90;;;;;;5060365;28;20640;-81
2021/11/10 10:58:33;;;;;;;22.95;11.07;;;10.70;67.80;;;;;;5080366;28;20282;-82
2021/11/10 11:01:17;;;;;;;20.05;11.27;;;10.70;67.80;;;;;;5093229;28;20198;-81
2021/11/10 11:03:54;;;;;;;24.70;11.60;;;11.10;67.90;;;;;;5089527;28;20720;-80
2021/11/10 11:06:35;;;;;;;21.05;11.38;;;11.20;67.20;;;;;;5084309;28;20176;-82
2021/11/10 11:09:30;;;;;;;19.77;12.43;;;11.20;66.90;;;;;;5090516;28;20182;-81
2021/11/10 11:12:28;;;;;;;27.05;12.40;;;11.10;66.70;;;;;;5098108;28;20178;-80
2021/11/10 11:15:13;;;;;;;21.77;12.55;;;10.70;67.60;;;;;;5106947;28;20681;-80
2021/11/10 11:17:45;;;;;;;27.65;13.88;;;10.60;67.80;;;;;;5107034;28;20180;-80
2021/11/10 11:20:14;;;;;;;26.30;14.32;;;10.40;68.20;;;;;;5097059;28;20172;-80
2021/11/10 11:22:45;;;;;;;23.85;11.13;;;10.40;68.20;;;;;;5094199;28;20182;-80
2021/11/10 11:25:12;;;;;;;22.67;13.95;;;10.60;68.50;;;;;;5096536;28;20287;-80
2021/11/10 11:27:39;;;;;;;21.90;13.20;;;10.90;68.40;;;;;;5097405;28;20198;-80
2021/11/10 11:30:06;;;;;;;22.30;13.95;;;10.80;68.00;;;;;;5097263;28;20172;-82
2021/11/10 11:32:34;;;;;;;28.75;13.18;;;10.70;67.80;;;;;;5096501;28;20179;-82
2021/11/10 11:35:22;;;;;;;20.27;12.20;;;10.70;68.10;;;;;;5095546;28;20195;-81
2021/11/10 11:37:48;;;;;;;26.52;12.57;;;10.80;68.00;;;;;;5079762;28;20275;-79
2021/11/10 11:40:19;;;;;;;22.58;11.90;;;11.10;67.80;;;;;;5072741;28;20189;-79
2021/11/10 11:42:46;;;;;;;23.27;11.85;;;11.30;67.20;;;;;;5075944;28;20207;-79
2021/11/10 11:45:13;;;;;;;24.08;12.85;;;11.50;66.70;;;;;;5081511;28;20268;-79
2021/11/10 11:47:40;;;;;;;26.20;11.52;;;11.60;66.40;;;;;;5078024;28;20176;-79
2021/11/10 11:50:06;;;;;;;24.13;13.70;;;11.70;65.80;;;;;;5077629;28;20172;-79
2021/11/10 11:52:33;;;;;;;19.00;11.98;;;11.50;65.20;;;;;;5086873;28;20186;-79
2021/11/10 11:55:26;;;;;;;27.48;13.02;;;11.40;65.40;;;;;;5096160;28;20200;-79
2021/11/10 11:58:03;;;;;;;24.10;11.23;;;11.50;66.00;;;;;;5090268;28;20616;-79
2021/11/10 12:00:40;;;;;;;22.90;11.43;;;11.60;65.50;;;;;;5096712;28;20231;-78
2021/11/10 12:03:19;;;;;;;17.70;11.00;;;11.80;65.40;;;;;;5099223;28;20201;-81
2021/11/10 12:05:49;;;;;;;21.90;12.57;;;11.80;64.90;;;;;;5100233;28;20164;-81
2021/11/10 12:08:34;;;;;;;22.60;12.40;;;11.90;64.90;;;;;;5102643;28;20179;-82
2021/11/10 12:11:20;;;;;;;17.13;10.32;;;12.00;64.40;;;;;;5101687;28;20164;-81
2021/11/10 12:14:07;;;;;;;19.55;11.10;;;11.60;63.80;;;;;;5117824;28;20635;-81
2021/11/10 12:16:49;;;;;;;21.50;11.98;;;11.90;64.30;;;;;;5123500;28;20179;-82
2021/11/10 12:19:38;;;;;;;21.60;12.38;;;11.90;64.10;;;;;;5120703;28;20171;-81
2021/11/10 12:22:15;;;;;;;23.63;11.57;;;11.70;64.10;;;;;;5099656;28;20262;-81
2021/11/10 12:24:56;;;;;;;21.17;12.00;;;11.90;64.10;;;;;;5102464;28;20286;-81
2021/11/10 12:27:32;;;;;;;26.40;13.43;;;12.20;64.10;;;;;;5083686;28;20194;-81
2021/11/10 12:30:10;;;;;;;26.25;13.55;;;12.40;63.60;;;;;;5089884;28;20234;-81
2021/11/10 12:32:38;;;;;;;25.75;13.65;;;12.60;62.90;;;;;;5083351;28;20164;-82
2021/11/10 12:35:07;;;;;;;24.48;12.88;;;12.50;62.50;;;;;;5081317;28;20227;-82
2021/11/10 12:37:39;;;;;;;22.10;13.38;;;12.50;62.40;;;;;;5079986;28;20179;-81
2021/11/10 12:40:07;;;;;;;26.38;13.60;;;12.10;62.30;;;;;;5093858;28;20191;-82